createdAt,value
2019-04-07T00:01:52.640Z,99.10
2019-04-07T00:04:22.543Z,99.00
2019-04-07T00:06:52.279Z,98.90
2019-04-07T00:09:22.268Z,98.90
2019-04-07T00:11:51.972Z,98.80
2019-04-07T00:14:21.323Z,98.70
2019-04-07T00:16:50.897Z,98.60
2019-04-07T00:19:21.904Z,98.50
2019-04-07T00:21:52.307Z,98.70
2019-04-07T00:24:21.888Z,98.60
2019-04-07T00:26:52.555Z,98.70
2019-04-07T00:29:26.493Z,98.80
2019-04-07T00:31:56.445Z,99.10
2019-04-07T00:34:25.901Z,99.00
2019-04-07T00:36:55.713Z,98.80
2019-04-07T00:39:28.100Z,98.70
2019-04-07T00:41:58.246Z,98.60
2019-04-07T00:44:27.888Z,98.50
2019-04-07T00:47:03.096Z,98.40
2019-04-07T00:49:32.616Z,98.30
2019-04-07T00:52:03.887Z,98.20
2019-04-07T00:54:33.297Z,98.10
2019-04-07T00:57:02.807Z,98.00
2019-04-07T00:59:32.143Z,98.00
2019-04-07T01:02:01.506Z,98.10
2019-04-07T01:04:30.819Z,98.10
2019-04-07T01:07:00.263Z,98.00
2019-04-07T01:09:37.714Z,98.00
2019-04-07T01:12:23.535Z,97.90
2019-04-07T01:14:53.355Z,97.70
2019-04-07T01:17:22.788Z,97.60
2019-04-07T01:19:52.104Z,97.70
2019-04-07T01:22:21.889Z,97.60
2019-04-07T01:24:51.789Z,97.60
2019-04-07T01:27:21.155Z,97.60
2019-04-07T01:29:51.696Z,97.40
2019-04-07T01:32:21.310Z,97.20
2019-04-07T01:34:50.722Z,96.90
2019-04-07T01:37:20.051Z,96.60
2019-04-07T01:39:49.407Z,96.40
2019-04-07T01:42:26.514Z,96.00
2019-04-07T01:45:12.733Z,95.90
2019-04-07T01:47:44.273Z,95.90
2019-04-07T01:50:27.391Z,95.80
2019-04-07T01:53:01.257Z,95.60
2019-04-07T01:55:32.174Z,95.60
2019-04-07T01:58:08.086Z,95.60
2019-04-07T02:00:55.443Z,95.20
2019-04-07T02:03:29.111Z,95.10
2019-04-07T02:06:06.053Z,94.80
2019-04-07T02:08:54.978Z,94.80
2019-04-07T02:11:41.838Z,94.90
2019-04-07T02:14:15.911Z,95.00
2019-04-07T02:16:49.996Z,95.10
2019-04-07T02:19:21.618Z,95.10
2019-04-07T02:21:55.759Z,95.20
2019-04-07T02:24:43.212Z,95.60
2019-04-07T02:27:15.271Z,95.10
2019-04-07T02:29:50.062Z,95.10
2019-04-07T02:32:37.898Z,95.20
2019-04-07T02:35:12.896Z,95.10
2019-04-07T02:37:58.923Z,95.00
2019-04-07T02:40:33.099Z,95.00
2019-04-07T02:46:48.832Z,95.10
2019-04-07T02:49:26.306Z,95.30
2019-04-07T02:51:57.477Z,95.40
2019-04-07T02:54:44.552Z,95.60
2019-04-07T02:57:18.944Z,95.80
2019-04-07T02:59:56.048Z,96.10
2019-04-07T03:02:43.627Z,96.50
2019-04-07T03:05:15.553Z,96.90
2019-04-07T03:07:47.508Z,96.50
2019-04-07T03:10:25.117Z,96.70
2019-04-07T03:12:58.696Z,97.00
2019-04-07T03:15:38.706Z,97.20
2019-04-07T03:18:27.017Z,97.40
2019-04-07T03:21:04.018Z,97.60
2019-04-07T03:23:38.366Z,97.90
2019-04-07T03:26:27.655Z,98.00
2019-04-07T03:29:14.612Z,98.20
2019-04-07T03:31:48.048Z,98.30
2019-04-07T03:34:18.977Z,98.40
2019-04-07T03:37:26.969Z,98.70
2019-04-07T03:39:30.061Z,98.50
2019-04-07T03:42:17.879Z,98.20
2019-04-07T03:44:55.036Z,97.90
2019-04-07T03:47:26.105Z,97.90
2019-04-07T03:50:00.122Z,98.00
2019-04-07T03:52:43.226Z,97.80
2019-04-07T03:55:15.257Z,97.90
2019-04-07T03:58:03.614Z,97.90
2019-04-07T04:01:02.657Z,98.10
2019-04-07T04:03:42.266Z,98.20
2019-04-07T04:06:32.172Z,98.40
2019-04-07T04:09:08.899Z,98.60
2019-04-07T04:11:40.637Z,98.70
2019-04-07T04:14:11.701Z,98.80
2019-04-07T04:16:42.692Z,98.70
2019-04-07T04:19:12.919Z,98.80
2019-04-07T04:21:42.343Z,98.90
2019-04-07T04:24:12.277Z,98.90
2019-04-07T04:26:42.050Z,99.00
2019-04-07T04:29:12.274Z,99.20
2019-04-07T04:31:42.244Z,99.30
2019-04-07T04:34:12.014Z,99.60
2019-04-07T04:36:41.488Z,99.80
2019-04-07T04:39:10.889Z,99.70
2019-04-07T04:41:40.746Z,99.80
2019-04-07T04:44:14.210Z,99.80
2019-04-07T04:46:43.767Z,99.90
2019-04-07T04:49:13.552Z,99.90
2019-04-07T04:51:42.952Z,99.90
2019-04-07T04:54:12.581Z,99.90
2019-04-07T04:56:42.408Z,99.90
2019-04-07T04:59:12.926Z,99.90
2019-04-07T05:01:42.335Z,99.90
2019-04-07T05:04:12.589Z,99.90
2019-04-07T05:06:42.434Z,99.90
2019-04-07T05:09:12.309Z,99.90
2019-04-07T05:11:41.847Z,99.90
2019-04-07T05:14:11.427Z,99.90
2019-04-07T05:16:40.953Z,99.90
2019-04-07T05:19:10.982Z,99.90
2019-04-07T05:21:40.482Z,99.90
2019-04-07T05:24:10.229Z,99.90
2019-04-07T05:26:39.710Z,99.90
2019-04-07T05:29:10.303Z,99.90
2019-04-07T05:31:40.140Z,99.90
2019-04-07T05:34:10.789Z,99.90
2019-04-07T05:36:40.818Z,99.90
2019-04-07T05:39:10.297Z,99.90
2019-04-07T05:41:40.009Z,99.90
2019-04-07T05:44:09.378Z,99.90
2019-04-07T05:46:40.156Z,99.90
2019-04-07T05:49:09.694Z,99.90
2019-04-07T05:51:39.349Z,99.90
2019-04-07T05:54:11.989Z,99.90
2019-04-07T05:56:41.319Z,99.90
2019-04-07T05:59:13.078Z,99.90
2019-04-07T06:01:42.262Z,99.90
2019-04-07T06:04:17.509Z,99.90
2019-04-07T06:06:42.651Z,99.90
2019-04-07T06:09:11.944Z,99.70
2019-04-07T06:11:41.301Z,98.60
2019-04-07T06:14:11.538Z,98.70
2019-04-07T06:16:41.692Z,98.00
2019-04-07T06:19:11.578Z,97.10
2019-04-07T06:21:41.648Z,95.80
2019-04-07T06:24:11.332Z,94.10
2019-04-07T06:26:42.868Z,93.60
2019-04-07T06:29:11.855Z,91.70
2019-04-07T06:31:41.496Z,89.90
2019-04-07T06:34:11.989Z,88.40
2019-04-07T06:36:40.766Z,88.10
2019-04-07T06:39:10.002Z,87.90
2019-04-07T06:41:39.348Z,85.60
2019-04-07T06:44:13.333Z,84.90
2019-04-07T06:46:41.334Z,83.40
2019-04-07T06:49:21.943Z,83.10
2019-04-07T06:52:02.873Z,82.10
2019-04-07T06:54:43.835Z,81.60
2019-04-07T06:57:26.673Z,80.10
2019-04-07T06:59:57.778Z,79.50
2019-04-07T07:02:29.498Z,78.70
2019-04-07T07:05:04.226Z,79.00
2019-04-07T07:07:49.985Z,76.70
2019-04-07T07:10:40.124Z,76.30
2019-04-07T07:13:32.300Z,77.70
2019-04-07T07:16:00.481Z,74.60
2019-04-07T07:18:48.693Z,75.60
2019-04-07T07:21:20.171Z,74.10
2019-04-07T07:23:50.035Z,71.50
2019-04-07T07:26:21.472Z,69.80
2019-04-07T07:28:51.044Z,68.90
2019-04-07T07:31:23.868Z,69.50
2019-04-07T07:33:51.492Z,68.40
2019-04-07T07:36:22.646Z,67.40
2019-04-07T07:38:58.865Z,65.30
2019-04-07T07:41:23.290Z,65.00
2019-04-07T07:43:53.573Z,65.00
2019-04-07T07:46:23.837Z,65.60
2019-04-07T07:48:58.936Z,61.60
2019-04-07T07:51:25.757Z,59.80
2019-04-07T07:53:58.653Z,61.00
2019-04-07T07:56:26.860Z,62.90
2019-04-07T07:58:59.882Z,61.20
2019-04-07T08:01:28.369Z,62.00
2019-04-07T08:03:58.704Z,61.70
2019-04-07T08:06:28.200Z,58.80
2019-04-07T08:09:09.993Z,59.80
2019-04-07T08:11:32.206Z,59.20
2019-04-07T08:13:59.606Z,58.80
2019-04-07T08:16:31.239Z,57.00
2019-04-07T08:19:00.748Z,55.80
2019-04-07T08:21:32.653Z,53.80
2019-04-07T08:24:02.566Z,56.20
2019-04-07T08:26:32.078Z,56.70
2019-04-07T08:29:05.614Z,57.40
2019-04-07T08:31:33.701Z,56.30
2019-04-07T08:34:03.761Z,53.40
2019-04-07T08:36:33.835Z,49.90
2019-04-07T08:39:06.121Z,53.30
2019-04-07T08:41:39.169Z,52.70
2019-04-07T08:44:07.094Z,53.40
2019-04-07T08:46:40.932Z,53.50
2019-04-07T08:49:07.640Z,52.80
2019-04-07T08:51:38.038Z,52.60
2019-04-07T08:54:07.376Z,51.50
2019-04-07T08:56:37.612Z,50.90
2019-04-07T08:59:16.191Z,52.70
2019-04-07T09:01:43.543Z,51.10
2019-04-07T09:04:15.140Z,51.30
2019-04-07T09:06:44.890Z,50.70
2019-04-07T09:09:14.238Z,52.20
2019-04-07T09:11:43.659Z,50.40
2019-04-07T09:14:15.990Z,49.60
2019-04-07T09:17:04.678Z,48.10
2019-04-07T09:19:47.562Z,46.90
2019-04-07T09:22:23.178Z,47.20
2019-04-07T09:25:06.358Z,46.20
2019-04-07T09:27:48.618Z,47.40
2019-04-07T09:30:39.062Z,45.90
2019-04-07T09:33:26.992Z,44.10
2019-04-07T09:36:15.855Z,45.10
2019-04-07T09:39:03.916Z,46.00
2019-04-07T09:41:54.714Z,49.30
2019-04-07T09:44:24.095Z,47.10
2019-04-07T09:47:07.192Z,46.00
2019-04-07T09:49:57.560Z,45.30
2019-04-07T09:52:29.391Z,45.00
2019-04-07T09:55:01.051Z,44.00
2019-04-07T09:57:37.531Z,43.60
2019-04-07T10:00:25.529Z,44.90
2019-04-07T10:02:56.523Z,43.70
2019-04-07T10:05:33.561Z,44.40
2019-04-07T10:08:20.920Z,46.00
2019-04-07T10:10:58.323Z,43.50
2019-04-07T10:13:38.689Z,44.10
2019-04-07T10:16:22.198Z,41.40
2019-04-07T10:19:08.745Z,42.50
2019-04-07T10:21:52.705Z,44.60
2019-04-07T10:24:24.681Z,40.90
2019-04-07T10:26:58.831Z,40.50
2019-04-07T10:29:33.067Z,39.80
2019-04-07T10:32:10.255Z,41.30
2019-04-07T10:34:44.964Z,39.10
2019-04-07T10:37:21.917Z,38.70
2019-04-07T10:39:58.190Z,39.50
2019-04-07T10:42:35.848Z,39.50
2019-04-07T10:45:17.471Z,41.10
2019-04-07T10:47:48.730Z,40.70
2019-04-07T10:50:35.364Z,42.60
2019-04-07T10:53:11.448Z,38.30
2019-04-07T10:55:43.093Z,40.10
2019-04-07T10:58:14.135Z,42.20
2019-04-07T11:00:53.936Z,43.30
2019-04-07T11:03:28.278Z,43.60
2019-04-07T11:06:14.950Z,45.10
2019-04-07T11:08:51.888Z,42.70
2019-04-07T11:11:32.467Z,39.30
2019-04-07T11:14:06.843Z,40.50
2019-04-07T11:16:53.673Z,43.40
2019-04-07T11:19:40.586Z,45.60
2019-04-07T11:22:28.507Z,46.20
2019-04-07T11:25:16.980Z,45.50
2019-04-07T11:28:06.750Z,45.40
2019-04-07T11:30:38.703Z,45.30
2019-04-07T11:33:26.957Z,45.00
2019-04-07T11:36:10.628Z,45.70
2019-04-07T11:38:41.943Z,45.50
2019-04-07T11:41:26.140Z,45.40
2019-04-07T11:44:02.011Z,46.40
2019-04-07T11:46:33.109Z,45.60
2019-04-07T11:49:23.023Z,46.30
2019-04-07T11:51:55.543Z,46.30
2019-04-07T11:54:26.954Z,47.20
2019-04-07T11:57:33.540Z,46.20
2019-04-07T11:59:59.975Z,45.30
2019-04-07T12:02:33.553Z,45.20
2019-04-07T12:05:10.395Z,45.70
2019-04-07T12:07:58.762Z,46.60
2019-04-07T12:13:52.531Z,46.10
2019-04-07T12:16:39.104Z,44.00
2019-04-07T12:19:11.322Z,41.90
2019-04-07T12:22:03.502Z,41.30
2019-04-07T12:24:38.129Z,41.00
2019-04-07T12:27:25.920Z,44.50
2019-04-07T12:30:02.798Z,44.10
2019-04-07T12:32:50.847Z,44.70
2019-04-07T12:35:38.208Z,46.40
2019-04-07T12:38:26.501Z,45.70
2019-04-07T12:41:15.079Z,45.20
2019-04-07T12:43:49.569Z,43.90
2019-04-07T12:46:30.039Z,44.00
2019-04-07T12:49:13.251Z,45.00
2019-04-07T12:51:53.355Z,45.00
2019-04-07T12:54:24.896Z,46.00
2019-04-07T12:56:57.733Z,45.20
2019-04-07T12:59:41.076Z,47.10
2019-04-07T13:02:17.939Z,45.80
2019-04-07T13:04:48.181Z,41.50
2019-04-07T13:07:37.796Z,39.90
2019-04-07T13:10:19.432Z,38.00
2019-04-07T13:13:06.915Z,38.90
2019-04-07T13:15:38.867Z,37.90
2019-04-07T13:18:16.597Z,41.40
2019-04-07T13:20:50.263Z,40.70
2019-04-07T13:23:26.598Z,42.40
2019-04-07T13:26:26.788Z,43.90
2019-04-07T13:28:55.371Z,41.40
2019-04-07T13:31:30.319Z,44.50
2019-04-07T13:34:18.390Z,44.50
2019-04-07T13:36:55.608Z,45.70
2019-04-07T13:39:42.897Z,46.60
2019-04-07T13:42:23.106Z,45.80
2019-04-07T13:44:55.849Z,46.80
2019-04-07T13:47:38.631Z,48.60
2019-04-07T13:50:16.368Z,48.00
2019-04-07T13:53:01.407Z,49.70
2019-04-07T13:55:41.139Z,49.60
2019-04-07T13:58:26.108Z,50.50
2019-04-07T14:00:57.399Z,50.00
2019-04-07T14:03:40.676Z,49.40
2019-04-07T14:06:17.556Z,49.90
2019-04-07T14:08:51.699Z,49.30
2019-04-07T14:11:31.514Z,51.60
2019-04-07T14:14:05.650Z,49.20
2019-04-07T14:16:49.763Z,49.40
2019-04-07T14:19:29.758Z,52.30
2019-04-07T14:22:00.727Z,52.20
2019-04-07T14:24:40.630Z,52.80
2019-04-07T14:27:12.382Z,53.20
2019-04-07T14:29:50.207Z,50.90
2019-04-07T14:32:31.169Z,51.50
2019-04-07T14:35:08.352Z,52.30
2019-04-07T14:37:42.925Z,52.90
2019-04-07T14:40:26.295Z,53.30
2019-04-07T14:43:13.673Z,51.80
2019-04-07T14:46:05.372Z,51.90
2019-04-07T14:48:37.564Z,50.70
2019-04-07T14:51:10.086Z,51.60
2019-04-07T14:53:54.030Z,49.00
2019-04-07T14:56:37.882Z,49.40
2019-04-07T14:59:29.830Z,49.70
2019-04-07T15:02:02.193Z,48.10
2019-04-07T15:04:40.813Z,46.60
2019-04-07T15:07:32.457Z,48.30
2019-04-07T15:10:03.507Z,47.50
2019-04-07T15:12:34.937Z,47.30
2019-04-07T15:15:09.938Z,48.70
2019-04-07T15:17:37.843Z,47.00
2019-04-07T15:20:11.627Z,47.80
2019-04-07T15:22:40.996Z,48.60
2019-04-07T15:25:11.894Z,48.50
2019-04-07T15:27:41.308Z,47.30
2019-04-07T15:30:15.340Z,48.00
2019-04-07T15:32:42.769Z,49.00
2019-04-07T15:35:14.331Z,48.30
2019-04-07T15:37:43.196Z,49.30
2019-04-07T15:40:12.676Z,50.20
2019-04-07T15:42:45.984Z,49.50
2019-04-07T15:45:13.399Z,49.30
2019-04-07T15:47:42.799Z,50.80
2019-04-07T15:50:12.270Z,50.00
2019-04-07T15:52:44.299Z,49.90
2019-04-07T15:55:13.527Z,50.80
2019-04-07T15:57:43.940Z,51.30
2019-04-07T16:00:16.748Z,49.80
2019-04-07T16:02:49.263Z,49.60
2019-04-07T16:05:17.860Z,49.20
2019-04-07T16:07:48.074Z,50.80
2019-04-07T16:10:21.248Z,51.10
2019-04-07T16:12:52.230Z,51.90
2019-04-07T16:15:21.104Z,51.80
2019-04-07T16:17:50.565Z,51.50
2019-04-07T16:20:24.690Z,50.80
2019-04-07T16:22:53.828Z,52.80
2019-04-07T16:25:27.524Z,52.20
2019-04-07T16:27:53.375Z,51.90
2019-04-07T16:30:23.411Z,50.00
2019-04-07T16:32:53.658Z,51.20
2019-04-07T16:35:23.054Z,50.30
2019-04-07T16:37:53.131Z,51.30
2019-04-07T16:40:22.738Z,51.50
2019-04-07T16:43:04.402Z,51.20
2019-04-07T16:45:23.146Z,51.80
2019-04-07T16:47:53.052Z,51.20
2019-04-07T16:50:22.986Z,51.60
2019-04-07T16:52:53.224Z,52.30
2019-04-07T16:55:37.237Z,52.60
2019-04-07T16:58:08.491Z,52.00
2019-04-07T17:00:38.608Z,53.10
2019-04-07T17:03:09.900Z,53.70
2019-04-07T17:05:39.805Z,53.80
2019-04-07T17:08:09.139Z,53.70
2019-04-07T17:10:39.156Z,54.30
2019-04-07T17:13:16.955Z,53.30
2019-04-07T17:15:41.842Z,54.40
2019-04-07T17:18:30.845Z,53.50
2019-04-07T17:21:00.316Z,55.00
2019-04-07T17:23:29.636Z,54.40
2019-04-07T17:26:12.034Z,54.20
2019-04-07T17:28:44.654Z,54.30
2019-04-07T17:31:11.959Z,55.40
2019-04-07T17:33:41.555Z,54.90
2019-04-07T17:36:15.270Z,54.90
2019-04-07T17:38:44.294Z,55.00
2019-04-07T17:41:15.578Z,55.80
2019-04-07T17:44:02.706Z,56.00
2019-04-07T17:46:45.960Z,56.60
2019-04-07T17:49:18.011Z,57.10
2019-04-07T17:51:55.080Z,57.80
2019-04-07T17:54:38.550Z,58.50
2019-04-07T17:57:24.667Z,58.30
2019-04-07T18:00:05.787Z,59.50
2019-04-07T18:02:38.594Z,59.50
2019-04-07T18:05:10.557Z,60.10
2019-04-07T18:07:58.557Z,60.90
2019-04-07T18:10:35.225Z,61.10
2019-04-07T18:13:16.622Z,61.80
2019-04-07T18:15:59.955Z,62.20
2019-04-07T18:18:31.562Z,62.30
2019-04-07T18:21:07.202Z,62.50
2019-04-07T18:23:51.968Z,63.20
2019-04-07T18:26:35.466Z,63.30
2019-04-07T18:29:10.364Z,63.70
2019-04-07T18:31:42.277Z,64.20
2019-04-07T18:34:15.659Z,64.50
2019-04-07T18:37:06.089Z,64.60
2019-04-07T18:39:38.477Z,65.20
2019-04-07T18:42:14.180Z,65.70
2019-04-07T18:45:01.715Z,65.90
2019-04-07T18:47:39.474Z,66.70
2019-04-07T18:50:17.126Z,67.50
2019-04-07T18:52:53.338Z,67.40
2019-04-07T18:55:26.176Z,67.80
2019-04-07T18:57:57.211Z,67.90
2019-04-07T19:01:10.302Z,67.90
2019-04-07T19:03:53.713Z,67.90
2019-04-07T19:06:27.127Z,67.90
2019-04-07T19:09:04.776Z,68.10
2019-04-07T19:11:42.859Z,68.50
2019-04-07T19:14:36.436Z,68.40
2019-04-07T19:17:05.626Z,68.50
2019-04-07T19:19:36.732Z,68.50
2019-04-07T19:22:10.994Z,69.10
2019-04-07T19:24:44.719Z,69.30
2019-04-07T19:27:33.182Z,69.40
2019-04-07T19:30:06.942Z,69.40
2019-04-07T19:32:40.782Z,69.10
2019-04-07T19:35:15.304Z,68.80
2019-04-07T19:38:01.417Z,68.70
2019-04-07T19:40:32.416Z,68.80
2019-04-07T19:43:19.530Z,68.90
2019-04-07T19:46:06.981Z,69.00
2019-04-07T19:48:56.584Z,69.10
2019-04-07T19:51:46.950Z,69.30
2019-04-07T19:54:33.114Z,69.90
2019-04-07T19:57:22.210Z,70.10
2019-04-07T19:59:53.146Z,70.10
2019-04-07T20:02:24.160Z,70.50
2019-04-07T20:04:59.244Z,70.30
2019-04-07T20:07:31.415Z,70.50
2019-04-07T20:10:03.088Z,70.40
2019-04-07T20:12:41.272Z,70.60
2019-04-07T20:15:19.982Z,70.70
2019-04-07T20:17:56.801Z,70.70
2019-04-07T20:20:53.540Z,71.00
2019-04-07T20:23:27.746Z,70.30
2019-04-07T20:26:03.699Z,70.30
2019-04-07T20:28:44.970Z,70.20
2019-04-07T20:31:19.424Z,70.60
2019-04-07T20:33:51.757Z,71.10
2019-04-07T20:36:25.005Z,71.50
2019-04-07T20:39:01.940Z,71.80
2019-04-07T20:41:34.531Z,71.80
2019-04-07T20:44:11.548Z,72.50
2019-04-07T20:47:00.449Z,72.10
2019-04-07T20:49:34.243Z,72.40
2019-04-07T20:52:08.258Z,72.60
2019-04-07T20:54:56.297Z,72.70
2019-04-07T20:57:46.289Z,72.90
2019-04-07T21:00:23.687Z,73.60
2019-04-07T21:05:44.308Z,74.30
2019-04-07T21:08:15.397Z,74.40
2019-04-07T21:10:46.728Z,74.80
2019-04-07T21:13:19.309Z,75.00
2019-04-07T21:15:51.415Z,75.30
2019-04-07T21:18:39.079Z,75.60
2019-04-07T21:21:17.098Z,75.80
2019-04-07T21:23:57.891Z,75.90
2019-04-07T21:26:30.912Z,76.00
2019-04-07T21:29:10.804Z,76.40
2019-04-07T21:31:44.102Z,76.70
2019-04-07T21:34:33.348Z,77.00
2019-04-07T21:37:04.736Z,77.40
2019-04-07T21:39:41.884Z,77.90
2019-04-07T21:42:16.253Z,78.30
2019-04-07T21:44:55.280Z,79.20
2019-04-07T21:47:29.274Z,78.60
2019-04-07T21:50:00.339Z,78.60
2019-04-07T21:52:46.101Z,78.90
2019-04-07T21:55:20.013Z,79.60
2019-04-07T21:57:57.004Z,79.80
2019-04-07T22:00:41.332Z,80.40
2019-04-07T22:03:16.459Z,80.80
2019-04-07T22:05:49.444Z,81.10
2019-04-07T22:08:21.218Z,81.50
2019-04-07T22:10:52.254Z,82.20
2019-04-07T22:13:21.741Z,83.50
2019-04-07T22:15:56.275Z,83.10
2019-04-07T22:18:23.662Z,83.70
2019-04-07T22:20:54.809Z,84.40
2019-04-07T22:23:24.908Z,85.70
2019-04-07T22:25:54.763Z,85.10
2019-04-07T22:28:27.747Z,85.50
2019-04-07T22:30:55.943Z,86.00
2019-04-07T22:33:26.866Z,86.70
2019-04-07T22:35:56.293Z,87.10
2019-04-07T22:38:27.356Z,87.40
2019-04-07T22:40:56.845Z,88.40
2019-04-07T22:43:26.217Z,88.30
2019-04-07T22:46:06.893Z,88.40
2019-04-07T22:48:27.200Z,89.10
2019-04-07T22:50:56.806Z,89.30
2019-04-07T22:53:29.587Z,89.80
2019-04-07T22:55:57.138Z,89.60
2019-04-07T22:58:26.438Z,90.10
2019-04-07T23:00:55.766Z,90.70
2019-04-07T23:03:25.972Z,90.90
2019-04-07T23:05:55.547Z,91.00
2019-04-07T23:08:24.911Z,91.20
2019-04-07T23:10:54.334Z,91.40
2019-04-07T23:13:24.604Z,91.50
2019-04-07T23:16:06.397Z,91.60
2019-04-07T23:18:24.915Z,91.60
2019-04-07T23:20:54.289Z,91.80
2019-04-07T23:23:24.127Z,91.90
2019-04-07T23:25:54.150Z,92.10
2019-04-07T23:28:25.019Z,92.30
2019-04-07T23:30:54.969Z,92.90
2019-04-07T23:33:25.513Z,92.70
2019-04-07T23:35:55.431Z,92.50
2019-04-07T23:38:24.972Z,92.50
2019-04-07T23:40:55.622Z,92.90
2019-04-07T23:43:25.306Z,92.80
2019-04-07T23:45:55.938Z,92.70
2019-04-07T23:48:26.335Z,93.10
2019-04-07T23:50:56.145Z,93.40
2019-04-07T23:54:02.286Z,93.80
2019-04-07T23:56:31.752Z,93.60
2019-04-07T23:59:01.074Z,94.40
